PRIVATE WETTERSTATION BILLIGHEIM-ALLFELD                       ZURCK
Wetterdaten: Mittwoch, 05.02.2014
Datum Zeit Temp. A. Temp. A. min Temp. A. max Feuchte A. Luftdruck Regen Wind Richtung Richtung Sonnenschein ET Solar Taupunkt Windchill Windben Empfang
05.02.2014 00:00 0,4 C 0,4 C 0,4 C 89 % 1008,2 hPa 0,0 l/m 0,0 km/h (0 Bft) N-NO 22 0 min 0,000 mm 0 W/m -1,2 C 0,4 C 3,2 km/h (1 Bft) 100 %
05.02.2014 00:10 0,3 C 0,2 C 0,4 C 89 % 1008,0 hPa 0,0 l/m 0,0 km/h (0 Bft) N-NO 22 0 min 0,000 mm 0 W/m -1,3 C 0,3 C 4,8 km/h (1 Bft) 100 %
05.02.2014 00:20 0,3 C 0,2 C 0,3 C 89 % 1007,7 hPa 0,0 l/m 0,0 km/h (0 Bft) NO 45 0 min 0,000 mm 0 W/m -1,3 C 0,3 C 3,2 km/h (1 Bft) 100 %
05.02.2014 00:30 0,5 C 0,3 C 0,5 C 89 % 1007,4 hPa 0,0 l/m 1,6 km/h (1 Bft) O 90 0 min 0,000 mm 0 W/m -1,1 C 0,5 C 8,0 km/h (2 Bft) 99 %
05.02.2014 00:40 0,7 C 0,5 C 0,7 C 89 % 1007,3 hPa 0,0 l/m 1,6 km/h (1 Bft) NO 45 0 min 0,000 mm 0 W/m -0,9 C 0,7 C 8,0 km/h (2 Bft) 91 %
05.02.2014 00:50 0,5 C 0,5 C 0,7 C 89 % 1007,2 hPa 0,0 l/m 0,0 km/h (0 Bft) NO 45 0 min 0,000 mm 0 W/m -1,1 C 0,5 C 6,4 km/h (2 Bft) 100 %
05.02.2014 01:00 0,3 C 0,3 C 0,5 C 89 % 1007,0 hPa 0,0 l/m 1,6 km/h (1 Bft) NO 45 0 min 0,000 mm 0 W/m -1,3 C 0,3 C 6,4 km/h (2 Bft) 100 %
05.02.2014 01:10 0,2 C 0,2 C 0,3 C 89 % 1006,9 hPa 0,0 l/m 0,0 km/h (0 Bft) S-SO 157 0 min 0,000 mm 0 W/m -1,4 C 0,2 C 4,8 km/h (1 Bft) 100 %
05.02.2014 01:20 0,2 C 0,2 C 0,2 C 89 % 1006,8 hPa 0,0 l/m 0,0 km/h (0 Bft) NW 315 0 min 0,000 mm 0 W/m -1,4 C 0,2 C 3,2 km/h (1 Bft) 100 %
05.02.2014 01:30 0,2 C 0,2 C 0,2 C 89 % 1007,0 hPa 0,0 l/m 0,0 km/h (0 Bft) W-SW 247 0 min 0,000 mm 0 W/m -1,4 C 0,2 C 3,2 km/h (1 Bft) 100 %
05.02.2014 01:40 0,0 C 0,0 C 0,2 C 89 % 1006,9 hPa 0,0 l/m 0,0 km/h (0 Bft) W-SW 247 0 min 0,000 mm 0 W/m -1,6 C 0,0 C 3,2 km/h (1 Bft) 100 %
05.02.2014 01:50 -0,3 C -0,3 C 0,0 C 89 % 1006,7 hPa 0,0 l/m 1,6 km/h (1 Bft) N-NO 22 0 min 0,000 mm 0 W/m -1,9 C -0,3 C 4,8 km/h (1 Bft) 100 %
05.02.2014 02:00 -0,3 C -0,3 C -0,3 C 89 % 1006,2 hPa 0,0 l/m 0,0 km/h (0 Bft) NO 45 0 min 0,000 mm 0 W/m -1,9 C -0,3 C 6,4 km/h (2 Bft) 100 %
05.02.2014 02:10 -0,3 C -0,3 C -0,2 C 89 % 1006,4 hPa 0,0 l/m 0,0 km/h (0 Bft) SW 225 0 min 0,000 mm 0 W/m -1,9 C -0,3 C 3,2 km/h (1 Bft) 100 %
05.02.2014 02:20 -0,2 C -0,3 C -0,2 C 89 % 1006,2 hPa 0,0 l/m 1,6 km/h (1 Bft) N-NW 337 0 min 0,000 mm 0 W/m -1,8 C -0,2 C 4,8 km/h (1 Bft) 100 %
05.02.2014 02:30 -0,1 C -0,2 C -0,1 C 89 % 1006,2 hPa 0,0 l/m 0,0 km/h (0 Bft) N-NO 22 0 min 0,000 mm 0 W/m -1,7 C -0,1 C 3,2 km/h (1 Bft) 100 %
05.02.2014 02:40 -0,1 C -0,1 C -0,1 C 89 % 1006,3 hPa 0,0 l/m 0,0 km/h (0 Bft) O-NO 67 0 min 0,000 mm 0 W/m -1,7 C -0,1 C 4,8 km/h (1 Bft) 100 %
05.02.2014 02:50 -0,1 C -0,1 C -0,1 C 89 % 1006,1 hPa 0,0 l/m 0,0 km/h (0 Bft) O-NO 67 0 min 0,000 mm 0 W/m -1,7 C -0,1 C 3,2 km/h (1 Bft) 100 %
05.02.2014 03:00 -0,1 C -0,1 C -0,1 C 89 % 1006,1 hPa 0,0 l/m 0,0 km/h (0 Bft) NO 45 0 min 0,000 mm 0 W/m -1,7 C -0,1 C 1,6 km/h (1 Bft) 100 %
05.02.2014 03:10 0,0 C -0,1 C 0,0 C 89 % 1005,8 hPa 0,0 l/m 0,0 km/h (0 Bft) NO 45 0 min 0,000 mm 0 W/m -1,6 C 0,0 C 8,0 km/h (2 Bft) 100 %
05.02.2014 03:20 0,0 C 0,0 C 0,1 C 89 % 1005,7 hPa 0,0 l/m 0,0 km/h (0 Bft) O-SO 112 0 min 0,000 mm 0 W/m -1,6 C 0,0 C 6,4 km/h (2 Bft) 100 %
05.02.2014 03:30 0,1 C 0,0 C 0,1 C 89 % 1005,4 hPa 0,0 l/m 0,0 km/h (0 Bft) O-NO 67 0 min 0,000 mm 0 W/m -1,5 C 0,1 C 6,4 km/h (2 Bft) 90 %
05.02.2014 03:40 0,1 C 0,1 C 0,1 C 89 % 1005,4 hPa 0,0 l/m 0,0 km/h (0 Bft) O-SO 112 0 min 0,000 mm 0 W/m -1,5 C 0,1 C 4,8 km/h (1 Bft) 98 %
05.02.2014 03:50 0,1 C 0,0 C 0,1 C 89 % 1005,2 hPa 0,0 l/m 0,0 km/h (0 Bft) O-SO 112 0 min 0,000 mm 0 W/m -1,5 C 0,1 C 4,8 km/h (1 Bft) 100 %
05.02.2014 04:00 0,0 C 0,0 C 0,1 C 89 % 1005,1 hPa 0,0 l/m 0,0 km/h (0 Bft) SO 135 0 min 0,000 mm 0 W/m -1,6 C 0,0 C 4,8 km/h (1 Bft) 99 %
05.02.2014 04:10 0,0 C 0,0 C 0,0 C 89 % 1005,2 hPa 0,0 l/m 0,0 km/h (0 Bft) W-SW 247 0 min 0,000 mm 0 W/m -1,6 C 0,0 C 6,4 km/h (2 Bft) 100 %
05.02.2014 04:20 -0,1 C -0,1 C 0,0 C 89 % 1004,8 hPa 0,0 l/m 0,0 km/h (0 Bft) O-NO 67 0 min 0,000 mm 0 W/m -1,7 C -0,1 C 4,8 km/h (1 Bft) 100 %
05.02.2014 04:30 -0,1 C -0,1 C -0,1 C 89 % 1004,7 hPa 0,0 l/m 1,6 km/h (1 Bft) NO 45 0 min 0,000 mm 0 W/m -1,7 C -0,1 C 8,0 km/h (2 Bft) 100 %
05.02.2014 04:40 -0,2 C -0,2 C -0,2 C 89 % 1004,8 hPa 0,0 l/m 1,6 km/h (1 Bft) SO 135 0 min 0,000 mm 0 W/m -1,8 C -0,2 C 11,3 km/h (2 Bft) 100 %
05.02.2014 04:50 -0,2 C -0,3 C -0,2 C 89 % 1004,6 hPa 0,0 l/m 0,0 km/h (0 Bft) N-NO 22 0 min 0,000 mm 0 W/m -1,8 C -0,2 C 4,8 km/h (1 Bft) 90 %
05.02.2014 05:00 -0,3 C -0,3 C -0,2 C 89 % 1004,3 hPa 0,0 l/m 0,0 km/h (0 Bft) O 90 0 min 0,000 mm 0 W/m -1,9 C -0,3 C 3,2 km/h (1 Bft) 100 %
05.02.2014 05:10 -0,3 C -0,3 C -0,3 C 89 % 1004,0 hPa 0,0 l/m 0,0 km/h (0 Bft) N-NO 22 0 min 0,000 mm 0 W/m -1,9 C -0,3 C 4,8 km/h (1 Bft) 100 %
05.02.2014 05:20 -0,4 C -0,4 C -0,3 C 89 % 1004,1 hPa 0,0 l/m 0,0 km/h (0 Bft) O 90 0 min 0,000 mm 0 W/m -2,0 C -0,4 C 8,0 km/h (2 Bft) 100 %
05.02.2014 05:30 -0,4 C -0,4 C -0,4 C 89 % 1003,8 hPa 0,0 l/m 0,0 km/h (0 Bft) W 270 0 min 0,000 mm 0 W/m -2,0 C -0,4 C 3,2 km/h (1 Bft) 100 %
05.02.2014 05:40 -0,5 C -0,5 C -0,4 C 89 % 1003,9 hPa 0,0 l/m 0,0 km/h (0 Bft) W 270 0 min 0,000 mm 0 W/m -2,1 C -0,5 C 4,8 km/h (1 Bft) 100 %
05.02.2014 05:50 -0,5 C -0,5 C -0,4 C 89 % 1003,9 hPa 0,0 l/m 0,0 km/h (0 Bft) O-NO 67 0 min 0,000 mm 0 W/m -2,1 C -0,5 C 4,8 km/h (1 Bft) 100 %
05.02.2014 06:00 -0,5 C -0,5 C -0,5 C 89 % 1004,0 hPa 0,0 l/m 0,0 km/h (0 Bft) N-NO 22 0 min 0,000 mm 0 W/m -2,1 C -0,5 C 1,6 km/h (1 Bft) 100 %
05.02.2014 06:10 -0,6 C -0,6 C -0,5 C 89 % 1004,0 hPa 0,0 l/m 0,0 km/h (0 Bft) N-NO 22 0 min 0,000 mm 0 W/m -2,2 C -0,6 C 6,4 km/h (2 Bft) 100 %
05.02.2014 06:20 -0,6 C -0,6 C -0,5 C 89 % 1003,9 hPa 0,0 l/m 1,6 km/h (1 Bft) NO 45 0 min 0,000 mm 0 W/m -2,2 C -0,6 C 9,7 km/h (2 Bft) 100 %
05.02.2014 06:30 -0,6 C -0,6 C -0,6 C 89 % 1003,7 hPa 0,0 l/m 0,0 km/h (0 Bft) NO 45 0 min 0,000 mm 0 W/m -2,2 C -0,6 C 4,8 km/h (1 Bft) 100 %
05.02.2014 06:40 -0,6 C -0,6 C -0,6 C 89 % 1003,4 hPa 0,0 l/m 0,0 km/h (0 Bft) O 90 0 min 0,000 mm 0 W/m -2,2 C -0,6 C 6,4 km/h (2 Bft) 100 %
05.02.2014 06:50 -0,6 C -0,6 C -0,6 C 89 % 1003,3 hPa 0,0 l/m 1,6 km/h (1 Bft) O 90 0 min 0,000 mm 0 W/m -2,2 C -0,6 C 4,8 km/h (1 Bft) 100 %
05.02.2014 07:00 -0,6 C -0,6 C -0,5 C 89 % 1002,9 hPa 0,0 l/m 0,0 km/h (0 Bft) NO 45 0 min 0,000 mm 0 W/m -2,2 C -0,6 C 4,8 km/h (1 Bft) 100 %
05.02.2014 07:10 -0,6 C -0,6 C -0,5 C 89 % 1002,9 hPa 0,0 l/m 1,6 km/h (1 Bft) NO 45 0 min 0,000 mm 0 W/m -2,2 C -0,6 C 8,0 km/h (2 Bft) 100 %
05.02.2014 07:20 -0,5 C -0,6 C -0,5 C 89 % 1003,3 hPa 0,0 l/m 0,0 km/h (0 Bft) O 90 0 min 0,000 mm 0 W/m -2,1 C -0,5 C 6,4 km/h (2 Bft) 100 %
05.02.2014 07:30 -0,4 C -0,5 C -0,4 C 89 % 1003,1 hPa 0,0 l/m 0,0 km/h (0 Bft) SW 225 0 min 0,000 mm 0 W/m -2,0 C -0,4 C 3,2 km/h (1 Bft) 100 %
05.02.2014 07:40 -0,4 C -0,4 C -0,4 C 89 % 1003,0 hPa 0,0 l/m 0,0 km/h (0 Bft) NO 45 0 min 0,000 mm 0 W/m -2,0 C -0,4 C 6,4 km/h (2 Bft) 91 %
05.02.2014 07:50 -0,4 C -0,4 C -0,3 C 89 % 1003,0 hPa 0,0 l/m 0,0 km/h (0 Bft) NO 45 0 min 0,000 mm 12 W/m -2,0 C -0,4 C 4,8 km/h (1 Bft) 100 %
05.02.2014 08:00 -0,3 C -0,3 C -0,3 C 89 % 1003,5 hPa 0,0 l/m 0,0 km/h (0 Bft) O-NO 67 0 min 0,000 mm 11 W/m -1,9 C -0,3 C 4,8 km/h (1 Bft) 100 %
05.02.2014 08:10 -0,3 C -0,3 C -0,2 C 89 % 1003,5 hPa 0,0 l/m 0,0 km/h (0 Bft) O 90 0 min 0,000 mm 9 W/m -1,9 C -0,3 C 3,2 km/h (1 Bft) 100 %
05.02.2014 08:20 -0,2 C -0,3 C -0,2 C 89 % 1003,4 hPa 0,0 l/m 0,0 km/h (0 Bft) O 90 0 min 0,000 mm 14 W/m -1,8 C -0,2 C 4,8 km/h (1 Bft) 100 %
05.02.2014 08:30 -0,2 C -0,2 C -0,2 C 89 % 1003,3 hPa 0,0 l/m 0,0 km/h (0 Bft) SO 135 0 min 0,000 mm 19 W/m -1,8 C -0,2 C 4,8 km/h (1 Bft) 100 %
05.02.2014 08:40 -0,2 C -0,2 C -0,2 C 89 % 1002,8 hPa 0,0 l/m 0,0 km/h (0 Bft) N-NO 22 0 min 0,000 mm 32 W/m -1,8 C -0,2 C 4,8 km/h (1 Bft) 100 %
05.02.2014 08:50 -0,1 C -0,2 C -0,1 C 89 % 1002,4 hPa 0,0 l/m 1,6 km/h (1 Bft) N-NO 22 0 min 0,000 mm 49 W/m -1,7 C -0,1 C 9,7 km/h (2 Bft) 100 %
05.02.2014 09:00 -0,1 C -0,1 C -0,1 C 89 % 1002,2 hPa 0,0 l/m 1,6 km/h (1 Bft) NO 45 0 min 0,000 mm 69 W/m -1,7 C -0,1 C 8,0 km/h (2 Bft) 91 %
05.02.2014 09:10 0,1 C -0,1 C 0,1 C 89 % 1002,7 hPa 0,0 l/m 1,6 km/h (1 Bft) NO 45 0 min 0,000 mm 84 W/m -1,5 C 0,1 C 6,4 km/h (2 Bft) 100 %
05.02.2014 09:20 0,1 C 0,0 C 0,1 C 89 % 1003,1 hPa 0,0 l/m 3,2 km/h (1 Bft) S-SO 157 0 min 0,000 mm 81 W/m -1,5 C 0,1 C 14,5 km/h (3 Bft) 100 %
05.02.2014 09:30 0,2 C 0,1 C 0,2 C 89 % 1003,1 hPa 0,0 l/m 0,0 km/h (0 Bft) SW 225 0 min 0,000 mm 81 W/m -1,4 C 0,2 C 4,8 km/h (1 Bft) 100 %
05.02.2014 09:40 0,4 C 0,2 C 0,4 C 89 % 1003,2 hPa 0,0 l/m 0,0 km/h (0 Bft) N-NO 22 0 min 0,000 mm 88 W/m -1,2 C 0,4 C 4,8 km/h (1 Bft) 100 %
05.02.2014 09:50 0,5 C 0,4 C 0,5 C 89 % 1002,8 hPa 0,0 l/m 0,0 km/h (0 Bft) N-NO 22 0 min 0,000 mm 88 W/m -1,1 C 0,5 C 4,8 km/h (1 Bft) 100 %
05.02.2014 10:00 0,6 C 0,4 C 0,6 C 89 % 1003,0 hPa 0,0 l/m 0,0 km/h (0 Bft) W-NW 292 0 min 0,025 mm 105 W/m -1,0 C 0,6 C 4,8 km/h (1 Bft) 100 %
05.02.2014 10:10 0,7 C 0,6 C 0,7 C 89 % 1002,7 hPa 0,0 l/m 0,0 km/h (0 Bft) NO 45 0 min 0,000 mm 113 W/m -0,9 C 0,7 C 4,8 km/h (1 Bft) 100 %
05.02.2014 10:20 0,8 C 0,7 C 0,8 C 89 % 1002,8 hPa 0,0 l/m 0,0 km/h (0 Bft) N-NW 337 0 min 0,000 mm 125 W/m -0,8 C 0,8 C 1,6 km/h (1 Bft) 100 %
05.02.2014 10:30 1,1 C 0,8 C 1,1 C 90 % 1002,6 hPa 0,0 l/m 0,0 km/h (0 Bft) O 90 0 min 0,000 mm 141 W/m -0,4 C 1,1 C 4,8 km/h (1 Bft) 89 %
05.02.2014 10:40 1,3 C 1,1 C 1,3 C 89 % 1002,5 hPa 0,0 l/m 0,0 km/h (0 Bft) N-NO 22 10 min 0,000 mm 153 W/m -0,3 C 1,3 C 4,8 km/h (1 Bft) 100 %
05.02.2014 10:50 1,4 C 1,3 C 1,4 C 90 % 1002,4 hPa 0,0 l/m 0,0 km/h (0 Bft) N 360 10 min 0,000 mm 202 W/m -0,1 C 1,4 C 3,2 km/h (1 Bft) 100 %
05.02.2014 11:00 1,5 C 1,4 C 1,6 C 89 % 1002,5 hPa 0,0 l/m 1,6 km/h (1 Bft) N-NO 22 10 min 0,051 mm 165 W/m -0,1 C 1,5 C 3,2 km/h (1 Bft) 100 %
05.02.2014 11:10 1,6 C 1,4 C 1,6 C 89 % 1002,5 hPa 0,0 l/m 0,4 km/h (0 Bft) O-NO 61 0 min 0,000 mm 149 W/m -0,0 C 1,6 C 3,2 km/h (1 Bft) 99 %
05.02.2014 11:20 1,9 C 1,6 C 1,9 C 89 % 1002,3 hPa 0,0 l/m 0,5 km/h (0 Bft) O 96 10 min 0,000 mm 155 W/m 0,3 C 1,9 C 4,8 km/h (1 Bft) 100 %
05.02.2014 11:30 2,1 C 1,8 C 2,1 C 89 % 1002,4 hPa 0,0 l/m 0,0 km/h (0 Bft) O 94 10 min 0,000 mm 176 W/m 0,5 C 2,1 C 1,6 km/h (1 Bft) 100 %
05.02.2014 11:40 2,4 C 2,1 C 2,4 C 88 % 1002,0 hPa 0,0 l/m 0,3 km/h (0 Bft) O 94 10 min 0,000 mm 255 W/m 0,6 C 2,4 C 3,2 km/h (1 Bft) 100 %
05.02.2014 11:50 2,9 C 2,4 C 2,9 C 89 % 1001,9 hPa 0,0 l/m 0,7 km/h (0 Bft) N 11 10 min 0,000 mm 434 W/m 1,3 C 2,9 C 4,8 km/h (1 Bft) 91 %
05.02.2014 12:00 3,3 C 2,9 C 3,3 C 86 % 1002,0 hPa 0,0 l/m 0,4 km/h (0 Bft) N-NO 22 10 min 0,000 mm 200 W/m 1,2 C 3,3 C 3,2 km/h (1 Bft) 100 %
05.02.2014 12:10 3,4 C 3,2 C 3,4 C 86 % 1001,9 hPa 0,0 l/m 0,3 km/h (0 Bft) N-NO 22 10 min 0,076 mm 225 W/m 1,3 C 3,4 C 3,2 km/h (1 Bft) 100 %
05.02.2014 12:20 3,6 C 3,4 C 3,6 C 86 % 1001,7 hPa 0,0 l/m 0,8 km/h (0 Bft) N-NO 26 10 min 0,000 mm 330 W/m 1,5 C 3,6 C 3,2 km/h (1 Bft) 100 %
05.02.2014 12:30 3,7 C 3,6 C 3,7 C 84 % 1001,7 hPa 0,0 l/m 1,9 km/h (1 Bft) N 5 10 min 0,000 mm 192 W/m 1,3 C 3,7 C 4,8 km/h (1 Bft) 100 %
05.02.2014 12:40 3,8 C 3,7 C 3,8 C 83 % 1001,3 hPa 0,0 l/m 1,6 km/h (1 Bft) O 98 10 min 0,000 mm 160 W/m 1,2 C 3,8 C 8,0 km/h (2 Bft) 100 %
05.02.2014 12:50 3,9 C 3,8 C 3,9 C 84 % 1001,3 hPa 0,0 l/m 0,8 km/h (0 Bft) O 79 10 min 0,000 mm 181 W/m 1,4 C 3,9 C 3,2 km/h (1 Bft) 100 %
05.02.2014 13:00 3,9 C 3,8 C 3,9 C 84 % 1001,2 hPa 0,0 l/m 0,3 km/h (0 Bft) O-NO 78 10 min 0,077 mm 178 W/m 1,4 C 3,9 C 3,2 km/h (1 Bft) 100 %
05.02.2014 13:10 3,9 C 3,9 C 3,9 C 84 % 1001,0 hPa 0,0 l/m 0,4 km/h (0 Bft) O-NO 78 0 min 0,000 mm 95 W/m 1,4 C 3,9 C 3,2 km/h (1 Bft) 100 %
05.02.2014 13:20 3,9 C 3,9 C 3,9 C 84 % 1001,1 hPa 0,0 l/m 0,3 km/h (0 Bft) O-NO 76 0 min 0,000 mm 114 W/m 1,4 C 3,9 C 3,2 km/h (1 Bft) 100 %
05.02.2014 13:30 3,9 C 3,8 C 3,9 C 84 % 1001,2 hPa 0,0 l/m 0,8 km/h (0 Bft) SO 140 0 min 0,000 mm 97 W/m 1,4 C 3,9 C 3,2 km/h (1 Bft) 100 %
05.02.2014 13:40 3,9 C 3,9 C 3,9 C 83 % 1001,0 hPa 0,0 l/m 0,4 km/h (0 Bft) O-SO 122 0 min 0,000 mm 62 W/m 1,3 C 3,9 C 3,2 km/h (1 Bft) 100 %
05.02.2014 13:50 4,0 C 3,9 C 4,0 C 84 % 1000,8 hPa 0,0 l/m 0,0 km/h (0 Bft) O-SO 122 0 min 0,000 mm 33 W/m 1,5 C 4,0 C 1,6 km/h (1 Bft) 99 %
05.02.2014 14:00 3,9 C 3,9 C 4,0 C 84 % 1000,9 hPa 0,0 l/m 0,2 km/h (0 Bft) N-NO 19 0 min 0,025 mm 35 W/m 1,4 C 3,9 C 3,2 km/h (1 Bft) 100 %
05.02.2014 14:10 3,8 C 3,8 C 3,9 C 83 % 1001,2 hPa 0,0 l/m 0,5 km/h (0 Bft) SO 138 0 min 0,000 mm 49 W/m 1,2 C 3,8 C 4,8 km/h (1 Bft) 100 %
05.02.2014 14:20 3,8 C 3,8 C 3,8 C 83 % 1001,3 hPa 0,0 l/m 1,4 km/h (1 Bft) S-SO 155 0 min 0,000 mm 33 W/m 1,2 C 3,8 C 8,0 km/h (2 Bft) 100 %
05.02.2014 14:30 3,7 C 3,7 C 3,8 C 84 % 1001,2 hPa 0,0 l/m 1,1 km/h (1 Bft) SO 130 0 min 0,000 mm 42 W/m 1,3 C 3,7 C 8,0 km/h (2 Bft) 100 %
05.02.2014 14:40 3,8 C 3,7 C 3,8 C 85 % 1001,2 hPa 0,0 l/m 0,2 km/h (0 Bft) SW 215 0 min 0,000 mm 46 W/m 1,5 C 3,8 C 3,2 km/h (1 Bft) 100 %
05.02.2014 14:50 3,8 C 3,8 C 3,8 C 85 % 1001,5 hPa 0,0 l/m 1,6 km/h (1 Bft) S 182 0 min 0,000 mm 37 W/m 1,5 C 3,8 C 6,4 km/h (2 Bft) 100 %
05.02.2014 15:00 3,7 C 3,7 C 3,8 C 86 % 1001,5 hPa 0,2 l/m 0,5 km/h (0 Bft) S-SO 154 0 min 0,025 mm 23 W/m 1,6 C 3,7 C 4,8 km/h (1 Bft) 100 %
05.02.2014 15:10 3,6 C 3,6 C 3,7 C 87 % 1001,3 hPa 0,2 l/m 0,0 km/h (0 Bft) S-SO 153 0 min 0,000 mm 32 W/m 1,6 C 3,6 C 0,0 km/h (0 Bft) 92 %
05.02.2014 15:20 3,6 C 3,6 C 3,7 C 88 % 1001,1 hPa 0,2 l/m 0,3 km/h (0 Bft) N-NO 28 0 min 0,000 mm 40 W/m 1,8 C 3,6 C 3,2 km/h (1 Bft) 100 %
05.02.2014 15:30 3,6 C 3,6 C 3,6 C 89 % 1001,2 hPa 0,0 l/m 0,1 km/h (0 Bft) S-SW 213 0 min 0,000 mm 25 W/m 2,0 C 3,6 C 3,2 km/h (1 Bft) 100 %
05.02.2014 15:40 3,6 C 3,6 C 3,6 C 89 % 1001,3 hPa 0,0 l/m 0,0 km/h (0 Bft) S-SW 213 0 min 0,000 mm 35 W/m 2,0 C 3,6 C 0,0 km/h (0 Bft) 100 %
05.02.2014 15:50 3,5 C 3,5 C 3,6 C 89 % 1001,4 hPa 0,2 l/m 1,4 km/h (1 Bft) S-SW 203 0 min 0,000 mm 30 W/m 1,9 C 3,5 C 4,8 km/h (1 Bft) 100 %
05.02.2014 16:00 3,4 C 3,4 C 3,5 C 89 % 1001,1 hPa 0,0 l/m 0,2 km/h (0 Bft) O-SO 107 0 min 0,026 mm 26 W/m 1,8 C 3,4 C 3,2 km/h (1 Bft) 100 %
05.02.2014 16:10 3,5 C 3,4 C 3,5 C 89 % 1000,9 hPa 0,0 l/m 0,2 km/h (0 Bft) O 96 0 min 0,000 mm 23 W/m 1,9 C 3,5 C 3,2 km/h (1 Bft) 100 %
05.02.2014 16:20 3,5 C 3,5 C 3,6 C 89 % 1000,8 hPa 0,2 l/m 0,4 km/h (0 Bft) N-NO 28 0 min 0,000 mm 19 W/m 1,9 C 3,5 C 4,8 km/h (1 Bft) 100 %
05.02.2014 16:30 3,6 C 3,5 C 3,6 C 89 % 1000,9 hPa 0,0 l/m 0,1 km/h (0 Bft) W-SW 242 0 min 0,000 mm 14 W/m 2,0 C 3,6 C 3,2 km/h (1 Bft) 100 %
05.02.2014 16:40 3,6 C 3,5 C 3,6 C 89 % 1000,8 hPa 0,0 l/m 0,0 km/h (0 Bft) N 351 0 min 0,000 mm 14 W/m 2,0 C 3,6 C 1,6 km/h (1 Bft) 100 %
05.02.2014 16:50 3,6 C 3,6 C 3,6 C 89 % 1000,9 hPa 0,0 l/m 0,0 km/h (0 Bft) N 351 0 min 0,000 mm 11 W/m 2,0 C 3,6 C 1,6 km/h (1 Bft) 100 %
05.02.2014 17:00 3,6 C 3,6 C 3,6 C 89 % 1000,9 hPa 0,0 l/m 1,2 km/h (1 Bft) W 278 0 min 0,000 mm 16 W/m 2,0 C 3,6 C 3,2 km/h (1 Bft) 100 %
05.02.2014 17:10 3,6 C 3,6 C 3,6 C 89 % 1001,1 hPa 0,0 l/m 0,2 km/h (0 Bft) W 278 0 min 0,000 mm 5 W/m 2,0 C 3,6 C 4,8 km/h (1 Bft) 100 %
05.02.2014 17:20 3,6 C 3,6 C 3,6 C 89 % 1001,3 hPa 0,0 l/m 0,4 km/h (0 Bft) W 279 0 min 0,000 mm 0 W/m 2,0 C 3,6 C 3,2 km/h (1 Bft) 100 %
05.02.2014 17:30 3,4 C 3,4 C 3,6 C 89 % 1001,3 hPa 0,0 l/m 0,2 km/h (0 Bft) W 281 0 min 0,000 mm 0 W/m 1,8 C 3,4 C 1,6 km/h (1 Bft) 100 %
05.02.2014 17:40 3,3 C 3,3 C 3,4 C 89 % 1001,4 hPa 0,0 l/m 0,0 km/h (0 Bft) W 281 0 min 0,000 mm 0 W/m 1,7 C 3,3 C 1,6 km/h (1 Bft) 100 %
05.02.2014 17:50 3,2 C 3,2 C 3,3 C 89 % 1001,5 hPa 0,0 l/m 0,0 km/h (0 Bft) W 281 0 min 0,000 mm 0 W/m 1,6 C 3,2 C 0,0 km/h (0 Bft) 100 %
05.02.2014 18:00 3,1 C 3,1 C 3,2 C 89 % 1001,5 hPa 0,0 l/m 0,0 km/h (0 Bft) W 281 0 min 0,000 mm 0 W/m 1,5 C 3,1 C 0,0 km/h (0 Bft) 100 %
05.02.2014 18:10 2,8 C 2,8 C 3,1 C 89 % 1001,8 hPa 0,0 l/m 0,7 km/h (0 Bft) W-SW 240 0 min 0,000 mm 0 W/m 1,2 C 2,8 C 3,2 km/h (1 Bft) 100 %
05.02.2014 18:20 2,8 C 2,8 C 2,8 C 89 % 1002,0 hPa 0,0 l/m 0,3 km/h (0 Bft) W-SW 240 0 min 0,000 mm 0 W/m 1,2 C 2,8 C 3,2 km/h (1 Bft) 100 %
05.02.2014 18:30 2,8 C 2,8 C 2,8 C 88 % 1002,2 hPa 0,0 l/m 0,2 km/h (0 Bft) W-SW 240 0 min 0,000 mm 0 W/m 1,0 C 2,8 C 3,2 km/h (1 Bft) 100 %
05.02.2014 18:40 2,8 C 2,8 C 2,8 C 88 % 1002,4 hPa 0,0 l/m 0,2 km/h (0 Bft) W-SW 240 0 min 0,000 mm 0 W/m 1,0 C 2,8 C 1,6 km/h (1 Bft) 100 %
05.02.2014 18:50 2,7 C 2,7 C 2,8 C 89 % 1002,2 hPa 0,0 l/m 0,5 km/h (0 Bft) W-SW 240 0 min 0,000 mm 0 W/m 1,1 C 2,7 C 3,2 km/h (1 Bft) 100 %
05.02.2014 19:00 2,7 C 2,7 C 2,7 C 88 % 1002,5 hPa 0,0 l/m 0,1 km/h (0 Bft) W-SW 240 0 min 0,000 mm 0 W/m 0,9 C 2,7 C 1,6 km/h (1 Bft) 100 %
05.02.2014 19:10 2,6 C 2,6 C 2,7 C 89 % 1002,8 hPa 0,0 l/m 0,0 km/h (0 Bft) W-SW 240 0 min 0,000 mm 0 W/m 1,0 C 2,6 C 0,0 km/h (0 Bft) 100 %
05.02.2014 19:20 2,3 C 2,3 C 2,6 C 89 % 1002,8 hPa 0,0 l/m 0,2 km/h (0 Bft) W-SW 240 0 min 0,000 mm 0 W/m 0,7 C 2,3 C 1,6 km/h (1 Bft) 100 %
05.02.2014 19:30 2,1 C 2,1 C 2,3 C 89 % 1003,0 hPa 0,0 l/m 0,5 km/h (0 Bft) W-SW 240 0 min 0,000 mm 0 W/m 0,5 C 2,1 C 3,2 km/h (1 Bft) 100 %
05.02.2014 19:40 2,1 C 2,1 C 2,1 C 89 % 1003,3 hPa 0,0 l/m 0,5 km/h (0 Bft) W-SW 240 0 min 0,000 mm 0 W/m 0,5 C 2,1 C 4,8 km/h (1 Bft) 100 %
05.02.2014 19:50 1,7 C 1,7 C 2,1 C 89 % 1003,5 hPa 0,0 l/m 0,2 km/h (0 Bft) N-NW 330 0 min 0,000 mm 0 W/m 0,1 C 1,7 C 3,2 km/h (1 Bft) 100 %
05.02.2014 20:00 2,0 C 1,7 C 2,0 C 88 % 1003,5 hPa 0,0 l/m 1,0 km/h (0 Bft) W-SW 248 0 min 0,000 mm 0 W/m 0,2 C 2,0 C 8,0 km/h (2 Bft) 100 %
05.02.2014 20:10 2,0 C 1,9 C 2,0 C 88 % 1003,7 hPa 0,0 l/m 0,0 km/h (0 Bft) W-SW 248 0 min 0,000 mm 0 W/m 0,2 C 2,0 C 1,6 km/h (1 Bft) 100 %
05.02.2014 20:20 2,2 C 2,0 C 2,2 C 88 % 1003,9 hPa 0,0 l/m 0,2 km/h (0 Bft) W-SW 248 0 min 0,000 mm 0 W/m 0,4 C 2,2 C 3,2 km/h (1 Bft) 100 %
05.02.2014 20:30 2,3 C 2,2 C 2,3 C 88 % 1004,0 hPa 0,0 l/m 0,8 km/h (0 Bft) W-SW 248 0 min 0,000 mm 0 W/m 0,5 C 2,3 C 4,8 km/h (1 Bft) 100 %
05.02.2014 20:40 2,3 C 2,3 C 2,3 C 89 % 1003,9 hPa 0,0 l/m 0,6 km/h (0 Bft) W-SW 248 0 min 0,000 mm 0 W/m 0,7 C 2,3 C 3,2 km/h (1 Bft) 100 %
05.02.2014 20:50 2,2 C 2,2 C 2,3 C 89 % 1004,0 hPa 0,0 l/m 1,3 km/h (1 Bft) SO 142 0 min 0,000 mm 0 W/m 0,6 C 2,2 C 4,8 km/h (1 Bft) 100 %
05.02.2014 21:00 2,2 C 2,2 C 2,3 C 89 % 1004,2 hPa 0,0 l/m 1,5 km/h (1 Bft) S-SW 205 0 min 0,000 mm 0 W/m 0,6 C 2,2 C 4,8 km/h (1 Bft) 92 %
05.02.2014 21:10 1,8 C 1,8 C 2,2 C 89 % 1004,4 hPa 0,0 l/m 1,6 km/h (1 Bft) SO 135 0 min 0,000 mm 0 W/m 0,2 C 1,8 C 8,0 km/h (2 Bft) 98 %
05.02.2014 21:20 1,4 C 1,4 C 1,8 C 89 % 1004,4 hPa 0,0 l/m 0,0 km/h (0 Bft) O-NO 67 0 min 0,000 mm 0 W/m -0,2 C 1,4 C 4,8 km/h (1 Bft) 96 %
05.02.2014 21:30 1,4 C 1,4 C 1,4 C 89 % 1004,4 hPa 0,0 l/m 0,0 km/h (0 Bft) S-SO 157 0 min 0,000 mm 0 W/m -0,2 C 1,4 C 3,2 km/h (1 Bft) 86 %
05.02.2014 21:40 1,1 C 1,1 C 1,4 C 89 % 1004,5 hPa 0,0 l/m 0,0 km/h (0 Bft) N 0 0 min 0,000 mm 0 W/m -0,5 C 1,1 C 0,0 km/h (0 Bft) 97 %
05.02.2014 21:50 0,7 C 0,7 C 1,1 C 89 % 1004,5 hPa 0,0 l/m 0,0 km/h (0 Bft) N 0 0 min 0,000 mm 0 W/m -0,9 C 0,7 C 0,0 km/h (0 Bft) 98 %
05.02.2014 22:00 0,6 C 0,6 C 0,7 C 89 % 1004,6 hPa 0,0 l/m 0,0 km/h (0 Bft) S-SO 157 0 min 0,000 mm 0 W/m -1,0 C 0,6 C 1,6 km/h (1 Bft) 97 %
05.02.2014 22:10 1,1 C 0,5 C 1,1 C 88 % 1004,5 hPa 0,0 l/m 1,6 km/h (1 Bft) SO 135 0 min 0,000 mm 0 W/m -0,7 C 1,1 C 4,8 km/h (1 Bft) 98 %
05.02.2014 22:20 0,9 C 0,9 C 1,3 C 89 % 1004,7 hPa 0,0 l/m 0,0 km/h (0 Bft) SO 135 0 min 0,000 mm 0 W/m -0,7 C 0,9 C 1,6 km/h (1 Bft) 97 %
05.02.2014 22:30 0,4 C 0,4 C 0,9 C 89 % 1004,7 hPa 0,0 l/m 0,0 km/h (0 Bft) SO 135 0 min 0,000 mm 0 W/m -1,2 C 0,4 C 6,4 km/h (2 Bft) 98 %
05.02.2014 22:40 0,7 C 0,4 C 0,7 C 89 % 1004,8 hPa 0,0 l/m 1,6 km/h (1 Bft) S-SO 157 0 min 0,000 mm 0 W/m -0,9 C 0,7 C 6,4 km/h (2 Bft) 98 %
05.02.2014 22:50 1,4 C 0,6 C 1,4 C 88 % 1005,0 hPa 0,0 l/m 3,2 km/h (1 Bft) S-SO 157 0 min 0,000 mm 0 W/m -0,4 C 1,4 C 8,0 km/h (2 Bft) 97 %
05.02.2014 23:00 1,8 C 1,4 C 1,8 C 88 % 1005,1 hPa 0,0 l/m 4,8 km/h (1 Bft) S-SO 157 0 min 0,000 mm 0 W/m 0,0 C 1,8 C 11,3 km/h (2 Bft) 89 %
05.02.2014 23:10 1,9 C 1,8 C 1,9 C 88 % 1005,3 hPa 0,0 l/m 4,8 km/h (1 Bft) S-SO 157 0 min 0,000 mm 0 W/m 0,1 C 1,9 C 8,0 km/h (2 Bft) 97 %
05.02.2014 23:20 2,1 C 1,9 C 2,1 C 89 % 1005,5 hPa 0,0 l/m 6,4 km/h (2 Bft) SO 135 0 min 0,000 mm 0 W/m 0,5 C 2,1 C 9,7 km/h (2 Bft) 98 %
05.02.2014 23:30 2,0 C 2,0 C 2,1 C 89 % 1005,6 hPa 0,0 l/m 6,4 km/h (2 Bft) S-SO 157 0 min 0,000 mm 0 W/m 0,4 C 2,0 C 12,9 km/h (3 Bft) 97 %
05.02.2014 23:40 1,8 C 1,8 C 2,0 C 89 % 1005,8 hPa 0,0 l/m 4,8 km/h (1 Bft) S-SO 157 0 min 0,000 mm 0 W/m 0,2 C 1,8 C 9,7 km/h (2 Bft) 97 %
05.02.2014 23:50 1,8 C 1,7 C 1,8 C 89 % 1005,8 hPa 0,0 l/m 4,8 km/h (1 Bft) S-SO 157 0 min 0,000 mm 0 W/m 0,2 C 1,8 C 8,0 km/h (2 Bft) 98 %
_ Min-Zeit 06:10 06:10 06:30 12:40 13:50 - 00:00 - - - - - 06:10 06:10 15:10 21:30
Minimum _ -0,6 C -0,6 C -0,6 C 83 % 1000,8 hPa - 0,0 km/h (0 Bft) - - - - - -2,2 C -0,6 C 0,0 km/h (0 Bft) 86 %
_ Max-Zeit 13:50 13:10 13:50 10:30 00:00 15:00 23:20 - - 10:40 13:00 11:50 15:30 13:50 09:20 00:00
Maximum _ 4,0 C 3,9 C 4,0 C 90 % 1008,2 hPa 0,2 l/m 6,4 km/h
SO (2 Bft)
- - 10 min 0,077 mm 434 W/m 2,0 C 4,0 C 14,5 km/h
S (3 Bft)
100 %
Durchschnitt _ 1,5 C 1,4 C 1,5 C 88 % 1003,5 hPa #1,0 l/m 0,7 km/h (0 Bft) S-SO - #2:20 h #0,305 mm 92 W/m -0,3 C 1,5 C 4,6 km/h (1 Bft) 99 %
PRIVATE WETTERSTATION BILLIGHEIM-ALLFELD - www.neckar-odenwald-wetter.de - Holger Sonntag